Time;durP1;ratioP1;P1;durP2;ratioP2;P2;SDS_P1;SDS_P2;PMS_P1;PMS_P2;Temp;Humidity;BMP_temperature;BMP_pressure;BME280_temperature;BME280_humidity;BME280_pressure;Samples;Min_cycle;Max_cycle;Signal;HPM_P1;HPM_P2
2021/08/09 00:01:09;5681.00;0.02;10.47;0.00;0.00;0.62;;;;;20.70;1.00;;;;;;2275358;61;1136;-85
2021/08/09 00:03:36;0.00;0.00;0.62;0.00;0.00;0.62;;;;;20.70;1.00;;;;;;2275291;61;1374;-85
2021/08/09 00:06:03;0.00;0.00;0.62;0.00;0.00;0.62;;;;;20.90;1.00;;;;;;2275791;61;1156;-85
2021/08/09 00:08:30;0.00;0.00;0.62;0.00;0.00;0.62;;;;;21.10;1.00;;;;;;2275788;61;1240;-85
2021/08/09 00:10:58;27970.00;0.09;49.07;0.00;0.00;0.62;;;;;21.00;1.00;;;;;;2275506;61;1195;-85
2021/08/09 00:13:25;0.00;0.00;0.62;0.00;0.00;0.62;;;;;21.10;1.00;;;;;;2275564;61;1481;-86
2021/08/09 00:15:52;40068.00;0.13;70.01;0.00;0.00;0.62;;;;;21.30;1.00;;;;;;2275457;61;2001;-85
2021/08/09 00:18:19;0.00;0.00;0.62;0.00;0.00;0.62;;;;;21.50;1.00;;;;;;2275515;61;1147;-85
2021/08/09 00:20:45;64378.00;0.21;112.04;0.00;0.00;0.62;;;;;21.70;1.00;;;;;;2275336;61;1095;-85
2021/08/09 00:23:12;0.00;0.00;0.62;0.00;0.00;0.62;;;;;21.50;1.00;;;;;;2274294;61;1383;-85
2021/08/09 00:25:39;0.00;0.00;0.62;0.00;0.00;0.62;;;;;21.50;1.00;;;;;;2274152;61;1104;-85
2021/08/09 00:28:07;0.00;0.00;0.62;0.00;0.00;0.62;;;;;21.50;1.00;;;;;;2274638;61;1085;-85
2021/08/09 00:30:34;18602.00;0.06;32.85;0.00;0.00;0.62;;;;;21.40;1.00;;;;;;2274637;61;1112;-85
2021/08/09 00:33:01;84426.00;0.28;146.68;5615.00;0.02;10.35;;;;;21.20;1.00;;;;;;2274261;61;1289;-85
2021/08/09 00:35:28;0.00;0.00;0.62;0.00;0.00;0.62;;;;;20.70;1.00;;;;;;2274607;61;1918;-86
2021/08/09 00:37:55;0.00;0.00;0.62;0.00;0.00;0.62;;;;;20.80;1.00;;;;;;2274638;61;1172;-85
2021/08/09 00:40:22;0.00;0.00;0.62;0.00;0.00;0.62;;;;;21.00;1.00;;;;;;2274834;61;1167;-85
2021/08/09 00:42:48;25482.00;0.08;44.76;0.00;0.00;0.62;;;;;21.10;1.00;;;;;;2274986;61;1297;-85
2021/08/09 00:45:17;147792.00;0.49;256.00;0.00;0.00;0.62;;;;;21.30;1.00;;;;;;2274537;61;1150;-85
2021/08/09 00:47:44;36900.00;0.12;64.52;0.00;0.00;0.62;;;;;21.30;1.00;;;;;;2274276;61;1096;-85
2021/08/09 00:50:11;0.00;0.00;0.62;0.00;0.00;0.62;;;;;21.40;1.00;;;;;;2274752;61;1095;-85
2021/08/09 00:52:38;89164.00;0.30;154.86;0.00;0.00;0.62;;;;;21.30;1.00;;;;;;2274187;61;1355;-85
2021/08/09 00:55:05;0.00;0.00;0.62;0.00;0.00;0.62;;;;;21.20;1.00;;;;;;2274182;61;1997;-86
2021/08/09 00:57:33;107882.00;0.36;187.18;0.00;0.00;0.62;;;;;21.30;1.00;;;;;;2274484;61;1156;-85
2021/08/09 01:00:02;0.00;0.00;0.62;0.00;0.00;0.62;;;;;21.40;1.00;;;;;;2274507;61;1121;-86
2021/08/09 01:02:31;0.00;0.00;0.62;0.00;0.00;0.62;;;;;21.50;1.00;;;;;;2274425;61;1309;-85
2021/08/09 01:04:58;92106.00;0.31;159.94;23392.00;0.08;41.14;;;;;21.40;1.00;;;;;;2274176;61;1153;-85
2021/08/09 01:07:30;0.00;0.00;0.62;0.00;0.00;0.62;;;;;21.00;1.00;;;;;;2274213;61;1112;-85
2021/08/09 01:10:07;0.00;0.00;0.62;0.00;0.00;0.62;;;;;20.80;1.00;;;;;;2274179;61;1179;-86
2021/08/09 01:12:42;0.00;0.00;0.62;0.00;0.00;0.62;;;;;20.70;1.00;;;;;;2274583;61;1375;-85
2021/08/09 01:15:15;0.00;0.00;0.62;0.00;0.00;0.62;;;;;20.90;1.00;;;;;;2274660;61;1988;-85
2021/08/09 01:17:46;0.00;0.00;0.62;0.00;0.00;0.62;;;;;21.00;1.00;;;;;;2274901;61;1202;-86
2021/08/09 01:20:24;0.00;0.00;0.62;0.00;0.00;0.62;;;;;21.10;1.00;;;;;;2275332;61;1111;-86
2021/08/09 01:23:02;0.00;0.00;0.62;0.00;0.00;0.62;;;;;21.20;1.00;;;;;;2275298;61;1479;-85
2021/08/09 01:25:38;0.00;0.00;0.62;0.00;0.00;0.62;;;;;21.20;1.00;;;;;;2274779;61;1155;-85
2021/08/09 01:28:09;102234.00;0.34;177.43;0.00;0.00;0.62;;;;;20.80;1.00;;;;;;2274562;61;1124;-86
2021/08/09 01:30:38;43270.00;0.14;75.55;0.00;0.00;0.62;;;;;20.60;1.00;;;;;;2275291;61;1187;-85
2021/08/09 01:33:09;0.00;0.00;0.62;0.00;0.00;0.62;;;;;20.60;1.00;;;;;;2274573;61;1383;-85
2021/08/09 01:35:37;14077.00;0.05;25.01;0.00;0.00;0.62;;;;;20.60;1.00;;;;;;2274303;61;1997;-85
2021/08/09 01:38:05;77848.00;0.26;135.32;0.00;0.00;0.62;;;;;20.50;1.00;;;;;;2274519;61;1160;-85
2021/08/09 01:40:34;0.00;0.00;0.62;0.00;0.00;0.62;;;;;20.50;1.00;;;;;;2274644;61;1167;-85
2021/08/09 01:43:02;0.00;0.00;0.62;0.00;0.00;0.62;;;;;20.60;1.00;;;;;;2263657;61;1475;-85
2021/08/09 01:45:33;157396.00;0.52;272.55;0.00;0.00;0.62;;;;;20.90;1.00;;;;;;2274377;61;1159;-86
2021/08/09 01:48:00;21659.00;0.07;38.14;0.00;0.00;0.62;;;;;21.00;1.00;;;;;;2274857;61;1144;-86
2021/08/09 01:50:28;0.00;0.00;0.62;0.00;0.00;0.62;;;;;21.10;1.00;;;;;;2276524;60;1115;-82
2021/08/09 01:52:55;0.00;0.00;0.62;0.00;0.00;0.62;;;;;21.10;1.00;;;;;;2276077;60;1300;-85
2021/08/09 01:55:24;0.00;0.00;0.62;0.00;0.00;0.62;;;;;21.10;1.00;;;;;;2266874;61;2003;-85
2021/08/09 01:57:52;0.00;0.00;0.62;0.00;0.00;0.62;;;;;21.10;1.00;;;;;;2274024;61;1116;-86
2021/08/09 02:00:19;10773.00;0.04;19.29;0.00;0.00;0.62;;;;;21.10;1.00;;;;;;2274199;61;1107;-85
2021/08/09 02:02:48;0.00;0.00;0.62;0.00;0.00;0.62;;;;;21.00;1.00;;;;;;2274126;61;1277;-85
2021/08/09 02:05:17;70860.00;0.24;123.25;0.00;0.00;0.62;;;;;20.70;1.00;;;;;;2273808;61;1102;-85
2021/08/09 02:07:46;0.00;0.00;0.62;0.00;0.00;0.62;;;;;20.70;1.00;;;;;;2274182;61;1143;-85
2021/08/09 02:10:18;75682.00;0.25;131.58;0.00;0.00;0.62;;;;;20.70;1.00;;;;;;2274096;61;1124;-86
2021/08/09 02:12:50;49000.00;0.16;85.46;0.00;0.00;0.62;;;;;20.60;1.00;;;;;;2274059;61;1479;-85
2021/08/09 02:15:20;69047.00;0.23;120.11;0.00;0.00;0.62;;;;;20.20;1.00;;;;;;2273799;61;1994;-85
2021/08/09 02:17:56;0.00;0.00;0.62;0.00;0.00;0.62;;;;;19.80;1.00;;;;;;2273816;61;1124;-85
2021/08/09 02:20:32;101575.00;0.34;176.29;30122.00;0.10;52.79;;;;;19.30;1.00;;;;;;2273608;61;1195;-85
2021/08/09 02:23:04;0.00;0.00;0.62;0.00;0.00;0.62;;;;;18.90;1.00;;;;;;2273048;61;1468;-83
2021/08/09 02:25:34;54326.00;0.18;94.67;0.00;0.00;0.62;;;;;18.40;1.00;;;;;;2273677;61;1191;-84
2021/08/09 02:28:07;257446.00;0.86;444.76;42712.00;0.14;74.58;;;;;17.90;1.00;;;;;;2273421;61;1130;-82
2021/08/09 02:30:38;0.00;0.00;0.62;0.00;0.00;0.62;;;;;17.80;1.00;;;;;;2273267;61;1110;-83
2021/08/09 02:33:07;359686.00;1.20;620.51;15432.00;0.05;27.36;;;;;18.00;1.00;;;;;;2273485;61;1325;-83
2021/08/09 02:35:35;0.00;0.00;0.62;0.00;0.00;0.62;;;;;18.10;1.00;;;;;;2265631;61;1943;-82
2021/08/09 02:38:03;0.00;0.00;0.62;0.00;0.00;0.62;;;;;18.20;1.00;;;;;;2273224;61;1063;-84
2021/08/09 02:40:30;60907.00;0.20;106.04;0.00;0.00;0.62;;;;;18.50;1.00;;;;;;2272641;61;1228;-84
2021/08/09 02:42:57;0.00;0.00;0.62;0.00;0.00;0.62;;;;;19.00;1.00;;;;;;2272522;61;1258;-84
2021/08/09 02:45:25;0.00;0.00;0.62;0.00;0.00;0.62;;;;;19.30;1.00;;;;;;2273182;61;1097;-85
2021/08/09 02:47:53;41260.00;0.14;72.07;0.00;0.00;0.62;;;;;19.60;1.00;;;;;;2273714;61;1147;-84
2021/08/09 02:50:22;100176.00;0.33;173.88;0.00;0.00;0.62;;;;;19.80;1.00;;;;;;2273996;61;1142;-84
2021/08/09 02:52:49;0.00;0.00;0.62;0.00;0.00;0.62;;;;;20.10;1.00;;;;;;2274386;61;1331;-84
2021/08/09 02:55:18;63776.00;0.21;111.00;0.00;0.00;0.62;;;;;20.20;1.00;;;;;;2274214;61;2005;-84
2021/08/09 02:57:46;0.00;0.00;0.62;0.00;0.00;0.62;;;;;20.10;1.00;;;;;;2274304;61;1149;-84
2021/08/09 03:00:14;111193.00;0.37;192.89;14091.00;0.05;25.04;;;;;19.60;1.00;;;;;;2273862;61;1152;-84
2021/08/09 03:02:43;42839.00;0.14;74.80;0.00;0.00;0.62;;;;;19.20;1.00;;;;;;2273764;61;1278;-84
2021/08/09 03:05:13;0.00;0.00;0.62;0.00;0.00;0.62;;;;;19.00;1.00;;;;;;2273787;61;1130;-83
2021/08/09 03:07:44;1476.00;0.00;3.18;0.00;0.00;0.62;;;;;19.30;1.00;;;;;;2273848;61;1162;-84
2021/08/09 03:10:13;76169.00;0.25;132.42;8566.00;0.03;15.46;;;;;19.50;1.00;;;;;;2275194;61;1131;-85
2021/08/09 03:12:40;287919.00;0.96;497.15;154362.00;0.51;267.32;;;;;19.40;1.00;;;;;;2275965;61;1399;-83
2021/08/09 03:15:08;130731.00;0.44;226.59;22537.00;0.08;39.66;;;;;19.10;1.00;;;;;;2276042;61;1992;-84
2021/08/09 03:17:36;0.00;0.00;0.62;0.00;0.00;0.62;;;;;19.30;1.00;;;;;;2275807;61;1231;-84
2021/08/09 03:20:04;0.00;0.00;0.62;0.00;0.00;0.62;;;;;19.30;1.00;;;;;;2275740;61;1119;-84
2021/08/09 03:22:30;140454.00;0.47;243.35;0.00;0.00;0.62;;;;;19.40;1.00;;;;;;2273885;61;1366;-84
2021/08/09 03:24:59;0.00;0.00;0.62;0.00;0.00;0.62;;;;;19.50;1.00;;;;;;2272888;61;1110;-84
2021/08/09 03:27:25;35979.00;0.12;62.93;0.00;0.00;0.62;;;;;19.40;1.00;;;;;;2273711;61;1159;-84
2021/08/09 03:29:52;18840.00;0.06;33.26;0.00;0.00;0.62;;;;;19.70;1.00;;;;;;2274282;61;1230;-84
2021/08/09 03:32:19;71495.00;0.24;124.34;0.00;0.00;0.62;;;;;19.70;1.00;;;;;;2274274;61;1365;-85
2021/08/09 03:34:46;0.00;0.00;0.62;0.00;0.00;0.62;;;;;19.80;1.00;;;;;;2274268;61;1167;-84
2021/08/09 03:37:13;0.00;0.00;0.62;0.00;0.00;0.62;;;;;19.90;1.00;;;;;;2273932;61;1936;-84
2021/08/09 03:39:40;0.00;0.00;0.62;0.00;0.00;0.62;;;;;19.90;1.00;;;;;;2273854;61;1124;-84
2021/08/09 03:42:09;0.00;0.00;0.62;0.00;0.00;0.62;;;;;20.00;1.00;;;;;;2273430;61;1375;-84
2021/08/09 03:44:36;19781.00;0.07;34.89;0.00;0.00;0.62;;;;;20.10;1.00;;;;;;2273413;61;1155;-84
2021/08/09 03:47:03;23028.00;0.08;40.51;0.00;0.00;0.62;;;;;20.20;1.00;;;;;;2273612;61;1176;-85
2021/08/09 03:49:30;129795.00;0.43;224.98;63209.00;0.21;110.02;;;;;20.30;1.00;;;;;;2273840;61;1103;-85
2021/08/09 03:51:57;0.00;0.00;0.62;0.00;0.00;0.62;;;;;19.90;1.00;;;;;;2274015;61;1108;-84
2021/08/09 03:54:24;11371.00;0.04;20.32;0.00;0.00;0.62;;;;;19.80;1.00;;;;;;2273919;61;1259;-85
2021/08/09 03:56:50;104250.00;0.35;180.91;30507.00;0.10;53.46;;;;;19.90;1.00;;;;;;2273849;61;2008;-85
2021/08/09 03:59:19;0.00;0.00;0.62;0.00;0.00;0.62;;;;;19.90;1.00;;;;;;2274307;61;1124;-85
2021/08/09 04:01:48;0.00;0.00;0.62;0.00;0.00;0.62;;;;;19.70;1.00;;;;;;2274071;61;1166;-85
2021/08/09 04:04:15;33145.00;0.11;58.03;0.00;0.00;0.62;;;;;19.00;1.00;;;;;;2274120;61;1265;-85
2021/08/09 04:06:42;0.00;0.00;0.62;0.00;0.00;0.62;;;;;18.70;1.00;;;;;;2273707;61;1175;-85
2021/08/09 04:09:09;60805.00;0.20;105.87;0.00;0.00;0.62;;;;;18.40;1.00;;;;;;2273338;61;1115;-85
2021/08/09 04:11:36;0.00;0.00;0.62;0.00;0.00;0.62;;;;;18.60;1.00;;;;;;2273479;61;1183;-85
2021/08/09 04:14:04;0.00;0.00;0.62;0.00;0.00;0.62;;;;;19.10;1.00;;;;;;2273847;61;1359;-85
2021/08/09 04:16:32;26133.00;0.09;45.89;0.00;0.00;0.62;;;;;19.30;1.00;;;;;;2266327;61;1947;-85
2021/08/09 04:18:59;44027.00;0.15;76.86;0.00;0.00;0.62;;;;;19.60;1.00;;;;;;2273740;61;1148;-84
2021/08/09 04:21:26;38050.00;0.13;66.51;0.00;0.00;0.62;;;;;19.60;1.00;;;;;;2266343;61;1196;-85
2021/08/09 04:23:53;291334.00;0.97;503.02;77951.00;0.26;135.50;;;;;19.10;1.00;;;;;;2273401;61;1391;-85
2021/08/09 04:26:20;146901.00;0.49;254.47;20029.00;0.07;35.32;;;;;19.00;1.00;;;;;;2268688;61;1046;-85
2021/08/09 04:28:47;0.00;0.00;0.62;0.00;0.00;0.62;;;;;18.80;1.00;;;;;;2277826;61;1270;-85
2021/08/09 04:31:15;0.00;0.00;0.62;0.00;0.00;0.62;;;;;18.70;1.00;;;;;;2271129;61;1129;-85
2021/08/09 04:33:44;66500.00;0.22;115.71;0.00;0.00;0.62;;;;;18.90;1.00;;;;;;2278153;61;1369;-85
2021/08/09 04:36:11;51361.00;0.17;89.54;0.00;0.00;0.62;;;;;18.60;1.00;;;;;;2277848;61;1996;-85
2021/08/09 04:38:39;36603.00;0.12;64.01;0.00;0.00;0.62;;;;;18.70;1.00;;;;;;2277512;61;1116;-84
2021/08/09 04:41:07;0.00;0.00;0.62;0.00;0.00;0.62;;;;;18.80;1.00;;;;;;2278489;61;1235;-84
2021/08/09 04:43:36;0.00;0.00;0.62;0.00;0.00;0.62;;;;;19.20;1.00;;;;;;2280756;60;1288;-82
2021/08/09 04:46:03;234908.00;0.78;405.99;101523.00;0.34;176.20;;;;;19.10;1.00;;;;;;2279283;60;1149;-84
2021/08/09 04:48:30;0.00;0.00;0.62;0.00;0.00;0.62;;;;;18.80;1.00;;;;;;2279780;61;1130;-85
2021/08/09 04:50:59;0.00;0.00;0.62;0.00;0.00;0.62;;;;;18.70;1.00;;;;;;2280733;60;1116;-86
2021/08/09 04:53:26;69131.00;0.23;120.26;0.00;0.00;0.62;;;;;19.20;1.00;;;;;;2280677;60;1343;-84
2021/08/09 04:55:54;71326.00;0.24;124.05;0.00;0.00;0.62;;;;;18.90;1.00;;;;;;2280608;60;1925;-85
2021/08/09 04:58:20;0.00;0.00;0.62;0.00;0.00;0.62;;;;;19.00;1.00;;;;;;2280576;61;1120;-84
2021/08/09 05:00:47;110545.00;0.37;191.77;0.00;0.00;0.62;;;;;19.50;1.00;;;;;;2278373;60;1116;-85
2021/08/09 05:03:14;0.00;0.00;0.62;0.00;0.00;0.62;;;;;20.00;1.00;;;;;;2275690;61;1295;-85
2021/08/09 05:05:44;0.00;0.00;0.62;0.00;0.00;0.62;;;;;20.50;1.00;;;;;;2275540;61;1180;-85
2021/08/09 05:08:12;258475.00;0.86;446.53;36655.00;0.12;64.10;;;;;20.90;1.00;;;;;;2268063;61;1183;-85
2021/08/09 05:10:40;0.00;0.00;0.62;0.00;0.00;0.62;;;;;20.90;1.00;;;;;;2275642;61;1138;-85
2021/08/09 05:13:07;27858.00;0.09;48.88;0.00;0.00;0.62;;;;;20.90;1.00;;;;;;2275209;61;1387;-85
2021/08/09 05:15:35;0.00;0.00;0.62;0.00;0.00;0.62;;;;;20.80;1.00;;;;;;2275607;61;2004;-85
2021/08/09 05:18:02;0.00;0.00;0.62;0.00;0.00;0.62;;;;;20.80;1.00;;;;;;2275946;61;1093;-85
2021/08/09 05:20:29;110628.00;0.37;191.91;0.00;0.00;0.62;;;;;21.00;1.00;;;;;;2275516;61;1153;-85
2021/08/09 05:22:56;0.00;0.00;0.62;0.00;0.00;0.62;;;;;20.90;1.00;;;;;;2276106;61;1390;-85
2021/08/09 05:25:24;255794.00;0.85;441.92;45896.00;0.15;80.09;;;;;20.90;1.00;;;;;;2275312;61;1168;-85
2021/08/09 05:27:51;0.00;0.00;0.62;0.00;0.00;0.62;;;;;21.10;1.00;;;;;;2277505;61;1151;-86
2021/08/09 05:30:18;29380.00;0.10;51.51;0.00;0.00;0.62;;;;;21.10;1.00;;;;;;2279609;61;1149;-86
2021/08/09 05:32:45;0.00;0.00;0.62;0.00;0.00;0.62;;;;;20.80;1.00;;;;;;2279225;61;1303;-86
2021/08/09 05:35:12;0.00;0.00;0.62;0.00;0.00;0.62;;;;;20.60;1.00;;;;;;2279174;61;1134;-85
2021/08/09 05:37:39;0.00;0.00;0.62;0.00;0.00;0.62;;;;;20.40;1.00;;;;;;2279384;61;2013;-86
2021/08/09 05:40:08;0.00;0.00;0.62;0.00;0.00;0.62;;;;;20.50;1.00;;;;;;2279705;61;1168;-86
2021/08/09 05:42:36;304286.00;1.01;525.29;64098.00;0.21;111.56;;;;;21.10;1.00;;;;;;2279627;61;1329;-86
2021/08/09 05:45:03;0.00;0.00;0.62;0.00;0.00;0.62;;;;;22.20;1.00;;;;;;2279595;61;1182;-85
2021/08/09 05:47:30;254864.00;0.85;440.32;20939.00;0.07;36.90;;;;;23.40;1.00;;;;;;2279589;61;1183;-84
2021/08/09 05:49:57;0.00;0.00;0.62;0.00;0.00;0.62;;;;;24.60;1.00;;;;;;2279692;61;1173;-85
2021/08/09 05:52:26;0.00;0.00;0.62;0.00;0.00;0.62;;;;;25.60;1.00;;;;;;2280080;61;1351;-88
2021/08/09 05:54:54;0.00;0.00;0.62;0.00;0.00;0.62;;;;;26.80;1.00;;;;;;2280267;60;1187;-86
2021/08/09 05:57:21;0.00;0.00;0.62;0.00;0.00;0.62;;;;;27.10;1.00;;;;;;2280288;61;1996;-86
2021/08/09 05:59:50;0.00;0.00;0.62;0.00;0.00;0.62;;;;;27.20;1.00;;;;;;2280472;60;1077;-85
2021/08/09 06:02:17;17324.00;0.06;30.64;0.00;0.00;0.62;;;;;27.10;1.00;;;;;;2280360;60;1315;-86
2021/08/09 06:04:44;117199288.00;390.66;65208100.00;0.00;0.00;0.62;;;;;27.10;1.00;;;;;;2280372;61;1142;-86
2021/08/09 06:07:13;0.00;0.00;0.62;0.00;0.00;0.62;;;;;27.30;1.00;;;;;;2280384;61;1141;-86
2021/08/09 06:09:40;0.00;0.00;0.62;0.00;0.00;0.62;;;;;27.90;1.00;;;;;;2280368;60;1135;-87
2021/08/09 06:12:07;0.00;0.00;0.62;0.00;0.00;0.62;;;;;28.50;1.00;;;;;;2280452;61;1419;-88
2021/08/09 06:14:34;0.00;0.00;0.62;0.00;0.00;0.62;;;;;28.40;1.00;;;;;;2280285;60;1088;-87
2021/08/09 06:17:03;13338.00;0.04;23.73;0.00;0.00;0.62;;;;;28.40;1.00;;;;;;2280292;61;2002;-88
2021/08/09 06:19:30;0.00;0.00;0.62;0.00;0.00;0.62;;;;;29.30;1.00;;;;;;2280429;60;1046;-88
2021/08/09 06:21:57;0.00;0.00;0.62;0.00;0.00;0.62;;;;;29.30;1.00;;;;;;2280342;60;1145;-88
2021/08/09 06:24:24;0.00;0.00;0.62;0.00;0.00;0.62;;;;;29.70;1.00;;;;;;2280359;60;1341;-88
2021/08/09 06:26:51;0.00;0.00;0.62;0.00;0.00;0.62;;;;;30.10;1.00;;;;;;2279666;61;1153;-88
2021/08/09 06:29:18;104954.00;0.35;182.12;0.00;0.00;0.62;;;;;31.10;1.00;;;;;;2280009;60;1135;-88
2021/08/09 06:31:45;0.00;0.00;0.62;0.00;0.00;0.62;;;;;31.60;1.00;;;;;;2280320;61;1141;-88
2021/08/09 06:34:13;72316.00;0.24;125.76;0.00;0.00;0.62;;;;;30.80;1.00;;;;;;2280353;60;1442;-87
2021/08/09 06:36:40;0.00;0.00;0.62;0.00;0.00;0.62;;;;;29.70;1.00;;;;;;2280371;60;1996;-87
2021/08/09 06:39:07;0.00;0.00;0.62;0.00;0.00;0.62;;;;;29.80;1.00;;;;;;2280428;60;1092;-89
2021/08/09 06:41:35;0.00;0.00;0.62;0.00;0.00;0.62;;;;;30.10;1.00;;;;;;2280375;60;1083;-88
2021/08/09 06:44:02;22354.00;0.07;39.35;0.00;0.00;0.62;;;;;30.60;1.00;;;;;;2280348;60;1474;-84
2021/08/09 06:46:29;0.00;0.00;0.62;0.00;0.00;0.62;;;;;30.90;1.00;;;;;;2280297;60;1131;-86
2021/08/09 06:48:56;11569.00;0.04;20.67;0.00;0.00;0.62;;;;;31.30;1.00;;;;;;2280407;60;1150;-85
2021/08/09 06:51:25;0.00;0.00;0.62;0.00;0.00;0.62;;;;;31.40;1.00;;;;;;2280392;60;1086;-88
2021/08/09 06:53:52;51882.00;0.17;90.44;0.00;0.00;0.62;;;;;30.60;1.00;;;;;;2280204;60;1304;-89
2021/08/09 06:56:18;0.00;0.00;0.62;0.00;0.00;0.62;;;;;30.40;1.00;;;;;;2280225;61;2000;-88
2021/08/09 06:58:45;55491.00;0.18;96.68;0.00;0.00;0.62;;;;;30.60;1.00;;;;;;2280280;60;1110;-86
2021/08/09 07:01:12;46736.00;0.16;81.54;0.00;0.00;0.62;;;;;31.00;1.00;;;;;;2280220;60;1146;-88
2021/08/09 07:03:39;0.00;0.00;0.62;0.00;0.00;0.62;;;;;31.40;1.00;;;;;;2281570;60;1297;-86
2021/08/09 07:06:06;0.00;0.00;0.62;0.00;0.00;0.62;;;;;31.90;1.00;;;;;;2281608;60;1123;-87
2021/08/09 07:08:34;55539.00;0.19;96.76;0.00;0.00;0.62;;;;;32.00;1.00;;;;;;2281335;60;1099;-84
2021/08/09 07:11:01;42330.00;0.14;73.92;0.00;0.00;0.62;;;;;32.50;1.00;;;;;;2281641;60;1136;-84
2021/08/09 07:13:28;0.00;0.00;0.62;0.00;0.00;0.62;;;;;32.50;1.00;;;;;;2281515;60;1391;-85
2021/08/09 07:15:55;0.00;0.00;0.62;0.00;0.00;0.62;;;;;31.80;1.00;;;;;;2281555;60;1147;-87
2021/08/09 07:18:22;0.00;0.00;0.62;0.00;0.00;0.62;;;;;32.00;1.00;;;;;;2281633;60;1923;-87
2021/08/09 07:20:49;0.00;0.00;0.62;0.00;0.00;0.62;;;;;31.70;1.00;;;;;;2281102;61;1152;-87
2021/08/09 07:23:16;0.00;0.00;0.62;0.00;0.00;0.62;;;;;32.70;1.00;;;;;;2281669;60;1310;-86
2021/08/09 07:25:44;0.00;0.00;0.62;0.00;0.00;0.62;;;;;33.20;1.00;;;;;;2281488;60;1094;-83
2021/08/09 07:28:11;0.00;0.00;0.62;0.00;0.00;0.62;;;;;34.20;1.00;;;;;;2281632;60;1098;-85
2021/08/09 07:30:38;285293.00;0.95;492.64;134224.00;0.45;232.61;;;;;33.60;1.00;;;;;;2281129;60;1112;-83
2021/08/09 07:33:05;170893.00;0.57;295.80;25100.00;0.08;44.10;;;;;34.10;1.00;;;;;;2280967;60;1285;-86
2021/08/09 07:35:32;0.00;0.00;0.62;0.00;0.00;0.62;;;;;33.80;1.00;;;;;;2281570;60;1158;-82
2021/08/09 07:37:59;269618.00;0.90;465.69;139754.00;0.47;242.15;;;;;33.20;1.00;;;;;;2281510;60;1915;-82
2021/08/09 07:40:26;118167.00;0.39;204.92;0.00;0.00;0.62;;;;;33.20;1.00;;;;;;2281552;60;1052;-85
2021/08/09 07:42:54;37989.00;0.13;66.41;0.00;0.00;0.62;;;;;33.00;1.00;;;;;;2281502;60;1404;-86
2021/08/09 07:45:21;0.00;0.00;0.62;0.00;0.00;0.62;;;;;32.80;1.00;;;;;;2281552;60;1166;-83
2021/08/09 07:47:52;0.00;0.00;0.62;0.00;0.00;0.62;;;;;33.10;1.00;;;;;;2281521;60;1100;-85
2021/08/09 07:50:19;0.00;0.00;0.62;0.00;0.00;0.62;;;;;33.50;1.00;;;;;;2281503;60;1107;-84
2021/08/09 07:52:46;0.00;0.00;0.62;0.00;0.00;0.62;;;;;33.80;1.00;;;;;;2281579;60;1335;-85
2021/08/09 07:55:13;0.00;0.00;0.62;0.00;0.00;0.62;;;;;33.30;1.00;;;;;;2281522;60;1127;-85
2021/08/09 07:57:41;0.00;0.00;0.62;0.00;0.00;0.62;;;;;33.30;1.00;;;;;;2281165;60;1923;-85
2021/08/09 08:00:11;0.00;0.00;0.62;0.00;0.00;0.62;;;;;33.60;1.00;;;;;;2281506;60;1087;-85
2021/08/09 08:02:38;169073.00;0.56;292.67;30041.00;0.10;52.65;;;;;33.20;1.00;;;;;;2281272;60;1312;-86
2021/08/09 08:05:06;0.00;0.00;0.62;0.00;0.00;0.62;;;;;33.90;1.00;;;;;;2281517;60;1144;-86
2021/08/09 08:07:33;7893.00;0.03;14.30;0.00;0.00;0.62;;;;;33.90;1.00;;;;;;2281450;60;1083;-85
2021/08/09 08:10:01;0.00;0.00;0.62;0.00;0.00;0.62;;;;;34.10;1.00;;;;;;2281530;61;1072;-87
2021/08/09 08:12:28;0.00;0.00;0.62;0.00;0.00;0.62;;;;;33.90;1.00;;;;;;2274308;60;1441;-85
2021/08/09 08:14:55;0.00;0.00;0.62;0.00;0.00;0.62;;;;;33.60;1.00;;;;;;2280631;60;1535;-86
2021/08/09 08:17:24;0.00;0.00;0.62;0.00;0.00;0.62;;;;;34.00;1.00;;;;;;2280661;60;2000;-85
2021/08/09 08:19:51;0.00;0.00;0.62;0.00;0.00;0.62;;;;;34.40;1.00;;;;;;2280833;60;1083;-83
2021/08/09 08:22:18;0.00;0.00;0.62;0.00;0.00;0.62;;;;;33.60;1.00;;;;;;2280420;60;1411;-85
2021/08/09 08:24:44;54095.00;0.18;94.27;0.00;0.00;0.62;;;;;33.20;1.00;;;;;;2280592;60;1164;-86
2021/08/09 08:27:12;0.00;0.00;0.62;0.00;0.00;0.62;;;;;33.30;1.00;;;;;;2280566;60;1162;-86
2021/08/09 08:29:39;0.00;0.00;0.62;0.00;0.00;0.62;;;;;33.10;1.00;;;;;;2280625;60;1059;-84
2021/08/09 08:32:06;6852.00;0.02;12.49;0.00;0.00;0.62;;;;;32.80;1.00;;;;;;2280533;60;1099;-84
2021/08/09 08:34:35;163366.00;0.54;282.84;68009.00;0.23;118.32;;;;;32.70;1.00;;;;;;2280560;60;1142;-84
2021/08/09 08:37:02;0.00;0.00;0.62;0.00;0.00;0.62;;;;;32.20;1.00;;;;;;2280514;60;1928;-85
2021/08/09 08:39:30;115213.00;0.38;199.82;42077.00;0.14;73.48;;;;;32.70;1.00;;;;;;2280247;60;1106;-83
2021/08/09 08:41:57;96949.00;0.32;168.31;0.00;0.00;0.62;;;;;33.00;1.00;;;;;;2280540;60;910;-84
2021/08/09 08:44:25;82256.00;0.27;142.93;0.00;0.00;0.62;;;;;32.60;1.00;;;;;;2280492;60;1202;-86
2021/08/09 08:46:54;72144.00;0.24;125.47;0.00;0.00;0.62;;;;;32.30;1.00;;;;;;2280521;60;1134;-84
2021/08/09 08:49:23;0.00;0.00;0.62;0.00;0.00;0.62;;;;;31.80;1.00;;;;;;2280467;60;1142;-84
2021/08/09 08:51:51;0.00;0.00;0.62;0.00;0.00;0.62;;;;;31.80;1.00;;;;;;2280479;60;1094;-85
2021/08/09 08:54:19;83071.00;0.28;144.34;0.00;0.00;0.62;;;;;32.00;1.00;;;;;;2280482;60;1320;-84
2021/08/09 08:56:47;70528.00;0.24;122.67;0.00;0.00;0.62;;;;;31.70;1.00;;;;;;2280389;60;2002;-87
2021/08/09 08:59:16;0.00;0.00;0.62;0.00;0.00;0.62;;;;;31.40;1.00;;;;;;2280451;60;1091;-85
2021/08/09 09:01:44;62877.00;0.21;109.45;0.00;0.00;0.62;;;;;31.40;1.00;;;;;;2280444;60;1154;-85
2021/08/09 09:04:26;0.00;0.00;0.62;0.00;0.00;0.62;;;;;31.90;1.00;;;;;;2280383;60;1373;-85
2021/08/09 09:07:01;0.00;0.00;0.62;0.00;0.00;0.62;;;;;31.50;1.00;;;;;;2280448;60;1139;-87
2021/08/09 09:09:29;0.00;0.00;0.62;0.00;0.00;0.62;;;;;31.50;1.00;;;;;;2280425;60;1123;-88
2021/08/09 09:11:57;0.00;0.00;0.62;0.00;0.00;0.62;;;;;30.90;1.00;;;;;;2280200;61;1133;-86
2021/08/09 09:14:26;49750.00;0.17;86.75;0.00;0.00;0.62;;;;;30.70;1.00;;;;;;2280289;60;1388;-85
2021/08/09 09:16:53;0.00;0.00;0.62;0.00;0.00;0.62;;;;;30.90;1.00;;;;;;2280399;60;1996;-86
2021/08/09 09:19:33;36570.00;0.12;63.95;0.00;0.00;0.62;;;;;30.30;1.00;;;;;;2280403;60;1130;-84
2021/08/09 09:22:03;0.00;0.00;0.62;0.00;0.00;0.62;;;;;29.30;1.00;;;;;;2280433;60;1055;-85
2021/08/09 09:24:30;0.00;0.00;0.62;0.00;0.00;0.62;;;;;28.70;1.00;;;;;;2262288;61;1106137;-86
2021/08/09 09:26:59;0.00;0.00;0.62;0.00;0.00;0.62;;;;;28.70;1.00;;;;;;2280326;60;1081;-85
2021/08/09 09:29:32;0.00;0.00;0.62;0.00;0.00;0.62;;;;;28.50;1.00;;;;;;2280658;60;1103;-87
2021/08/09 09:31:59;46625.00;0.16;81.35;0.00;0.00;0.62;;;;;28.80;1.00;;;;;;2280371;60;1121;-87
2021/08/09 09:34:26;161980.00;0.54;280.45;39627.00;0.13;69.24;;;;;29.00;1.00;;;;;;2280248;61;1318;-85
2021/08/09 09:36:55;82578.00;0.28;143.49;0.00;0.00;0.62;;;;;28.90;1.00;;;;;;2280582;60;1043;-84
2021/08/09 09:39:35;17653.00;0.06;31.21;0.00;0.00;0.62;;;;;29.10;1.00;;;;;;2280526;60;1989;-86
2021/08/09 09:42:04;0.00;0.00;0.62;0.00;0.00;0.62;;;;;28.90;1.00;;;;;;2280469;60;1137;-87
2021/08/09 09:44:33;12222.00;0.04;21.80;0.00;0.00;0.62;;;;;28.80;1.00;;;;;;2280412;60;1206;-87
2021/08/09 09:47:21;0.00;0.00;0.62;0.00;0.00;0.62;;;;;28.70;1.00;;;;;;2280530;60;1084;-85
2021/08/09 09:49:50;7527.00;0.03;13.66;0.00;0.00;0.62;;;;;28.50;1.00;;;;;;2280494;60;1352;-85
2021/08/09 09:52:35;0.00;0.00;0.62;0.00;0.00;0.62;;;;;28.20;1.00;;;;;;2280501;60;1246;-87
2021/08/09 09:55:07;19092.00;0.06;33.70;0.00;0.00;0.62;;;;;28.30;1.00;;;;;;2280538;60;1121;-85
2021/08/09 09:57:34;31584.00;0.11;55.32;0.00;0.00;0.62;;;;;28.40;1.00;;;;;;2280153;61;1927;-87
2021/08/09 10:00:02;214015.00;0.71;370.04;45980.00;0.15;80.23;;;;;28.80;1.00;;;;;;2279280;60;1135;-85
2021/08/09 10:02:29;41253.00;0.14;72.06;0.00;0.00;0.62;;;;;28.30;1.00;;;;;;2279853;60;1389;-86
2021/08/09 10:04:56;0.00;0.00;0.62;0.00;0.00;0.62;;;;;28.40;1.00;;;;;;2279988;60;1142;-86
2021/08/09 10:07:25;0.00;0.00;0.62;0.00;0.00;0.62;;;;;28.70;1.00;;;;;;2280123;60;1122;-87
2021/08/09 10:09:54;0.00;0.00;0.62;0.00;0.00;0.62;;;;;28.20;1.00;;;;;;2280458;61;1050;-88
2021/08/09 10:12:26;10474.00;0.03;18.77;0.00;0.00;0.62;;;;;28.40;1.00;;;;;;2280170;61;1303;-87
2021/08/09 10:14:55;0.00;0.00;0.62;0.00;0.00;0.62;;;;;28.60;1.00;;;;;;2280109;61;1126;-85
2021/08/09 10:17:23;0.00;0.00;0.62;0.00;0.00;0.62;;;;;28.70;1.00;;;;;;2280445;60;1990;-85
2021/08/09 10:19:52;0.00;0.00;0.62;0.00;0.00;0.62;;;;;29.00;1.00;;;;;;2280435;60;1079;-85
2021/08/09 10:22:20;54029.00;0.18;94.15;0.00;0.00;0.62;;;;;29.30;1.00;;;;;;2280428;60;1325;-85
2021/08/09 10:24:51;179549.00;0.60;310.71;21364.00;0.07;37.63;;;;;29.70;1.00;;;;;;2279531;60;1142;-88
2021/08/09 10:27:18;61248.00;0.20;106.63;0.00;0.00;0.62;;;;;29.70;1.00;;;;;;2280102;60;1139;-82
2021/08/09 10:30:15;68561.00;0.23;119.27;0.00;0.00;0.62;;;;;29.20;1.00;;;;;;2280429;60;1127;-83